Santa Cruz Airport
SBSC : rendu visible

Aérodrome :











RETROUVEZ-NOUS SUR...

 
LOGIN :

S'inscrire | Disclaimer

   EN    FR    IT 

 









Légende :    VFR   VFR Marginal   IFR   IFR Intensif   IFR Très Intensif
Visi : 
Plafond : 
>= 8 km
>= 3000ft
5 à 8 km
1000 à 3000 ft
1500m à 5 km
500 à 1000 ft
800 à 1500m
200 à 500 ft
< 800m
< 200 ft
Symboles :   Orages  Brouillard  Fortes neiges  Fortes précipitations  Vent > 20 kt






- Altitude de l'aérodrome : 10 ft
- Code IATA : SNZ


SBSC - Santa Cruz

DERNIER METAR :
  • 090700Z 30003KT 5000 BR SCT005 OVC015 19/18 Q1016

METARs EXPIRÉS :
  • 090600Z 28004KT 5000 BR SCT005 OVC015 19/18 Q1016
  • 090500Z 29004KT 5000 BR SCT005 OVC015 20/19 Q1016

TAF TAF SBSC
Valide du 09 à 06h jusqu'au 09 à 18h UTC


090300Z 0906/0918 00000KT 5000 BR BKN005 OVC020 TN21/0909Z TX24/0917Z
BECMG 0913/0914 28005KT 6000 SHRA SCT012
BECMG 0914/0916 25005KT 8000 SCT020
BECMG 0916/0918 8000 SHRA SCT025 RMK PAY



MET'MAP, la Météo Aéronautique d'un coup d'oeil ! - Copyright ORBIFLY Décembre 2007 - Disclaimer

ORBIFLY MET'MAP TEAM :

Programmation & Développement : Alexandra Zaïnal
Sur une idée originale de : Baudouin d'Aumeries
Assistance à la programmation : Marc-Olivier Méhu
Soutien technique & logistique : Manuel Goepfert

Contact : metmap@orbifly.com




SOURCES & CREDITS :

   NOAA       Earth
Advisory